ADDS METAR Data INFO
IDs: Format: Raw Decoded Include TAF

Data at: 0102 UTC 22 Oct 2017

KLMO 220055Z AUTO 23008KT 10SM CLR 09/M11 A3011 RMK AO2 T00901110
KLMO 220035Z AUTO 24011G16KT 10SM CLR 09/M11 A3011 RMK AO2 T00901110
KLMO 220015Z AUTO 21006KT 10SM CLR 09/M11 A3010 RMK AO2 T00861109
KLMO 212355Z AUTO 28006KT 10SM CLR 10/M11 A3009 RMK AO2 T00991113
KLMO 212335Z AUTO 25009G16KT 10SM CLR 11/M13 A3008 RMK AO2 T01141126
KLMO 212315Z AUTO 26008G23KT 10SM CLR 12/M13 A3008 RMK AO2 T01201132
KLMO 212255Z AUTO 27014G19KT 10SM CLR 13/M14 A3007 RMK AO2 T01261136
KLMO 212235Z AUTO 00000KT 10SM CLR 13/M12 A3006 RMK AO2 T01321121
KLMO 212215Z AUTO 02003KT 10SM CLR 14/M13 A3006 RMK AO2 T01351127
KLMO 212155Z AUTO 25009KT 10SM CLR 14/M12 A3006 RMK AO2 T01391124
KLMO 212135Z AUTO 24014G19KT 7SM CLR 13/M13 A3005 RMK AO2 T01331133
KLMO 212115Z AUTO 24013G17KT 10SM SCT100 14/M13 A3006 RMK AO2 T01361126
KLMO 212055Z AUTO 29007G18KT 260V320 10SM SCT100 14/M12 A3006 RMK AO2 T01371116
KLMO 212035Z AUTO 25010G17KT 10SM BKN100 14/M12 A3005 RMK AO2 T01381117
KLMO 212015Z AUTO 24009G15KT 7SM BKN100 14/M12 A3005 RMK AO2 T01381121
KLMO 211955Z AUTO 31005KT 10SM SCT100 14/M12 A3005 RMK AO2 T01411119
KLMO 211935Z AUTO 19006KT 7SM BKN110 12/M12 A3005 RMK AO2 T01161117
KLMO 211915Z AUTO 30004KT 10SM BKN110 12/M13 A3005 RMK AO2 T01151129
KLMO 211855Z AUTO 30007G16KT 270V330 7SM CLR 12/M13 A3006 RMK AO2 T01241127
KLMO 211835Z AUTO 29003KT 10SM SCT100 13/M11 A3006 RMK AO2 T01281110
KLMO 211815Z AUTO 04004KT 10SM BKN100 12/M11 A3006 RMK AO2 T01181113
KLMO 211755Z AUTO 31005G10KT 7SM SCT090 11/M11 A3006 RMK AO2 T01061111
KLMO 211735Z AUTO 28010G14KT 250V310 10SM BKN090 13/M11 A3006 RMK AO2 T01271110
KLMO 211715Z AUTO 24010G19KT 10SM SCT100 12/M12 A3005 RMK AO2 T01241116
KLMO 211655Z AUTO 24006KT 10SM CLR 12/M12 A3004 RMK AO2 T01201118
KLMO 211635Z AUTO 32014G24KT 7SM CLR 11/M12 A3004 RMK AO2 T01091117
KLMO 211615Z AUTO 32023G29KT 10SM CLR 11/M12 A3002 RMK AO2 T01091116
KLMO 211555Z AUTO 30014G23KT 7SM CLR 11/M12 A3003 RMK AO2 T01071117
KLMO 211515Z AUTO 27011G17KT 10SM CLR 10/M10 A3001 RMK AO2 T01011101
KLMO 211455Z AUTO 29008G17KT 10SM CLR 09/M10 A3000 RMK AO2 T00941105
KLMO 211435Z AUTO 28013G21KT 7SM CLR 09/M10 A2998 RMK AO2 T00901104
KLMO 211415Z AUTO 29012G18KT 10SM CLR 08/M11 A2995 RMK AO2 T00841108
KLMO 211355Z AUTO 28007KT 10SM CLR 08/M11 A2993 RMK AO2 T00771109
KLMO 211335Z AUTO 28016G20KT 10SM CLR 08/M12 A2990 RMK AO2 T00811124
KLMO 211315Z AUTO 29016G23KT 10SM CLR 09/M13 A2988 RMK AO2 T00871129
KLMO 211255Z AUTO 28013G29KT 10SM CLR 09/M13 A2986 RMK AO2 T00941131
KLMO 211235Z AUTO 25014G19KT 10SM CLR 10/M12 A2985 RMK AO2 T00971125
KLMO 211215Z AUTO 24012G18KT 10SM CLR 10/M11 A2983 RMK AO2 T01011114
KLMO 211155Z AUTO 00000KT 10SM CLR 10/M10 A2981 RMK AO2 T01021102
KLMO 211135Z AUTO 25012G29KT 10SM CLR 11/M10 A2978 RMK AO2 T01051099
KLMO 211115Z AUTO 26015G24KT 10SM CLR 11/M10 A2974 RMK AO2 T01071096
KLMO 211055Z AUTO 27017G25KT 10SM CLR 11/M10 A2971 RMK AO2 T01111096
KLMO 211035Z AUTO 26016G34KT 10SM CLR 13/M09 A2970 RMK AO2 T01261095
KLMO 211015Z AUTO 25020G38KT 10SM SCT120 13/M08 A2968 RMK AO2 T01251079
KLMO 210955Z AUTO 26019G28KT 10SM OVC110 13/M07 A2967 RMK AO2 T01311069
KLMO 210935Z AUTO 28018G32KT 10SM OVC110 14/M07 A2966 RMK AO2 T01371075
KLMO 210915Z AUTO 29013G27KT 10SM OVC100 14/M05 A2965 RMK AO2 T01401052
KLMO 210855Z AUTO 29022G30KT 10SM BKN100 OVC120 14/M05 A2963 RMK AO2 T01431049
KLMO 210835Z AUTO 27018G26KT 10SM BKN100 OVC120 14/M04 A2963 RMK AO2 T01421036
KLMO 210815Z AUTO 28008G15KT 10SM -RA SCT060 SCT075 OVC100 14/M02 A2963 RMK AO2 T01441020
KLMO 210755Z AUTO 26008G21KT 10SM SCT075 OVC100 15/M01 A2963 RMK AO2 T01481015
KLMO 210735Z AUTO 12004G14KT 10SM SCT075 BKN100 OVC120 14/02 A2964 RMK AO2 T01360020
KLMO 210715Z AUTO 09003KT 10SM SCT120 13/03 A2963 RMK AO2 T01250025
KLMO 210655Z AUTO 12004KT 10SM SCT120 14/01 A2957 RMK AO2 T01430011
KLMO 210615Z AUTO 20005KT 10SM CLR 18/00 A2955 RMK AO2 T01751002
KLMO 210555Z AUTO 00000KT 10SM CLR 16/00 A2955 RMK AO2 T01630001
KLMO 210535Z AUTO 27020G32KT 10SM CLR 18/00 A2956 RMK AO2 T01751003
KLMO 210515Z AUTO 26016G25KT 10SM CLR 18/M02 A2956 RMK AO2 T01801022
KLMO 210455Z AUTO 31003KT 10SM CLR 11/00 A2953 RMK AO2 T01141004
KLMO 210435Z AUTO 25003KT 10SM CLR 11/M01 A2953 RMK AO2 T01141009
KLMO 210415Z AUTO 00000KT 10SM CLR 11/M01 A2953 RMK AO2 T01101007
KLMO 210355Z AUTO 25005KT 10SM CLR 12/M01 A2953 RMK AO2 T01221006
KLMO 210335Z AUTO 00000KT 10SM CLR 12/00 A2953 RMK AO2 T01151004
KLMO 210315Z AUTO 24004KT 10SM CLR 13/M01 A2953 RMK AO2 T01251008
KLMO 210255Z AUTO 29003KT 10SM CLR 13/00 A2953 RMK AO2 T01321001
KLMO 210235Z AUTO 00000KT 10SM CLR 15/M01 A2953 RMK AO2 T01531006
KLMO 210215Z AUTO 00000KT 10SM CLR 15/01 A2954 RMK AO2 T01510008
KLMO 210155Z AUTO 00000KT 7SM CLR 14/02 A2954 RMK AO2 T01400024
KLMO 210135Z AUTO 00000KT 10SM CLR 14/03 A2953 RMK AO2 T01380028
KLMO 210115Z AUTO 29008KT 10SM CLR 15/03 A2953 RMK AO2 T01470027
KLMO 210055Z AUTO 26007KT 5SM HZ CLR 15/03 A2953 RMK AO2 T01540028
KLMO 210035Z AUTO 00000KT 10SM CLR 17/02 A2953 RMK AO2 T01680022
KLMO 210015Z AUTO 28005KT 10SM CLR 19/02 A2953 RMK AO2 T01880017
KLMO 202355Z AUTO 00000KT 10SM CLR 23/00 A2953 RMK AO2 T02251003
KLMO 202335Z AUTO 07004KT 10SM CLR 23/01 A2952 RMK AO2 T02300005
KLMO 202315Z AUTO 09006KT 10SM CLR 24/02 A2952 RMK AO2 T02370016
KLMO 202255Z AUTO 07004KT 10SM CLR 25/01 A2954 RMK AO2 T02510011
KLMO 202235Z AUTO 08004KT 10SM CLR 26/00 A2954 RMK AO2 T02590002
KLMO 202215Z AUTO 12005KT 10SM CLR 25/01 A2955 RMK AO2 T02500005
KLMO 202155Z AUTO 15003KT 10SM CLR 26/00 A2956 RMK AO2 T02631004
KLMO 202135Z AUTO 14005KT 10SM CLR 27/M01 A2956 RMK AO2 T02661007
KLMO 202115Z AUTO 13005KT 7SM CLR 27/M01 A2956 RMK AO2 T02671015
KLMO 202055Z AUTO 14003KT 10SM CLR 26/M02 A2957 RMK AO2 T02601017
KLMO 202035Z AUTO 13006KT 10SM CLR 27/M01 A2957 RMK AO2 T02651014
KLMO 202015Z AUTO 15004KT 10SM CLR 27/M01 A2957 RMK AO2 T02671007
KLMO 201955Z AUTO 10009KT 10SM CLR 27/01 A2957 RMK AO2 T02650006
KLMO 201935Z AUTO 11011G14KT 10SM CLR 26/01 A2958 RMK AO2 T02590006
KLMO 201915Z AUTO 14009G19KT 080V160 10SM CLR 26/02 A2960 RMK AO2 T02570015
KLMO 201855Z AUTO 11005KT 10SM CLR 25/03 A2961 RMK AO2 T02520030
KLMO 201835Z AUTO 10007KT 10SM CLR 24/04 A2962 RMK AO2 T02430036
KLMO 201815Z AUTO 12006KT 10SM CLR 24/03 A2963 RMK AO2 T02370034
KLMO 201755Z AUTO 11007KT 10SM CLR 23/03 A2965 RMK AO2 T02320027
KLMO 201735Z AUTO 13006KT 10SM CLR 22/03 A2967 RMK AO2 T02220032
KLMO 201715Z AUTO 00000KT 7SM CLR 21/02 A2970 RMK AO2 T02110024
KLMO 201655Z AUTO 00000KT 7SM CLR 20/02 A2970 RMK AO2 T01970020
KLMO 201635Z AUTO 00000KT 7SM CLR 18/03 A2971 RMK AO2 T01820030
KLMO 201615Z AUTO 00000KT 10SM CLR 17/03 A2972 RMK AO2 T01730034
KLMO 201555Z AUTO 00000KT 10SM CLR 16/03 A2974 RMK AO2 T01600033
KLMO 201535Z AUTO 00000KT 5SM HZ CLR 15/04 A2974 RMK AO2 T01450036
KLMO 201515Z AUTO 06004KT 7SM CLR 13/04 A2974 RMK AO2 T01340038
KLMO 201455Z AUTO 00000KT 7SM CLR 12/04 A2975 RMK AO2 T01160040
KLMO 201435Z AUTO 00000KT 7SM CLR 10/04 A2976 RMK AO2 T01040037
KLMO 201415Z AUTO 00000KT 7SM CLR 09/03 A2976 RMK AO2 T00860026
KLMO 201355Z AUTO 22003KT 10SM CLR 07/01 A2976 RMK AO2 T00680011
KLMO 201335Z AUTO 00000KT 7SM CLR 06/02 A2976 RMK AO2 T00610015
KLMO 201315Z AUTO 34003KT 7SM CLR 06/01 A2977 RMK AO2 T00560009